sensor_id;sensor_type;location;lat;lon;timestamp;P1;durP1;ratioP1;P2;durP2;ratioP2
41815;SDS011;27814;53.452;-6.180;2022-09-27T00:01:48;11.43;;;2.37;;
41815;SDS011;27814;53.452;-6.180;2022-09-27T00:04:17;13.38;;;2.42;;
41815;SDS011;27814;53.452;-6.180;2022-09-27T00:06:45;11.25;;;2.05;;
41815;SDS011;27814;53.452;-6.180;2022-09-27T00:09:13;13.47;;;2.30;;
41815;SDS011;27814;53.452;-6.180;2022-09-27T00:11:42;13.85;;;2.20;;
41815;SDS011;27814;53.452;-6.180;2022-09-27T00:14:11;13.63;;;1.83;;
41815;SDS011;27814;53.452;-6.180;2022-09-27T00:16:41;12.80;;;2.60;;
41815;SDS011;27814;53.452;-6.180;2022-09-27T00:19:12;13.52;;;2.03;;
41815;SDS011;27814;53.452;-6.180;2022-09-27T00:21:42;12.07;;;2.40;;
41815;SDS011;27814;53.452;-6.180;2022-09-27T00:24:11;10.27;;;1.92;;
41815;SDS011;27814;53.452;-6.180;2022-09-27T00:26:40;12.88;;;2.35;;
41815;SDS011;27814;53.452;-6.180;2022-09-27T00:29:09;10.48;;;2.75;;
41815;SDS011;27814;53.452;-6.180;2022-09-27T00:31:38;13.45;;;2.53;;
41815;SDS011;27814;53.452;-6.180;2022-09-27T00:34:06;12.77;;;2.53;;
41815;SDS011;27814;53.452;-6.180;2022-09-27T00:36:42;13.57;;;2.53;;
41815;SDS011;27814;53.452;-6.180;2022-09-27T00:39:10;13.88;;;2.47;;
41815;SDS011;27814;53.452;-6.180;2022-09-27T00:41:38;12.63;;;1.95;;
41815;SDS011;27814;53.452;-6.180;2022-09-27T00:47:09;14.55;;;2.40;;
41815;SDS011;27814;53.452;-6.180;2022-09-27T00:49:41;14.00;;;2.25;;
41815;SDS011;27814;53.452;-6.180;2022-09-27T00:52:16;15.02;;;3.08;;
41815;SDS011;27814;53.452;-6.180;2022-09-27T00:54:49;11.02;;;2.22;;
41815;SDS011;27814;53.452;-6.180;2022-09-27T00:57:21;19.27;;;2.67;;
41815;SDS011;27814;53.452;-6.180;2022-09-27T00:59:50;12.68;;;2.70;;
41815;SDS011;27814;53.452;-6.180;2022-09-27T01:02:24;13.18;;;2.97;;
41815;SDS011;27814;53.452;-6.180;2022-09-27T01:04:53;16.70;;;2.85;;
41815;SDS011;27814;53.452;-6.180;2022-09-27T01:07:24;13.98;;;3.00;;
41815;SDS011;27814;53.452;-6.180;2022-09-27T01:09:52;18.20;;;2.83;;
41815;SDS011;27814;53.452;-6.180;2022-09-27T01:12:22;13.80;;;2.53;;
41815;SDS011;27814;53.452;-6.180;2022-09-27T01:15:00;16.75;;;3.08;;
41815;SDS011;27814;53.452;-6.180;2022-09-27T01:17:38;14.77;;;3.00;;
41815;SDS011;27814;53.452;-6.180;2022-09-27T01:20:18;21.25;;;3.10;;
41815;SDS011;27814;53.452;-6.180;2022-09-27T01:23:17;13.75;;;2.47;;
41815;SDS011;27814;53.452;-6.180;2022-09-27T01:26:04;14.07;;;2.70;;
41815;SDS011;27814;53.452;-6.180;2022-09-27T01:28:45;15.20;;;2.73;;
41815;SDS011;27814;53.452;-6.180;2022-09-27T01:31:25;11.80;;;2.13;;
41815;SDS011;27814;53.452;-6.180;2022-09-27T01:34:01;17.85;;;2.60;;
41815;SDS011;27814;53.452;-6.180;2022-09-27T01:36:37;18.75;;;2.95;;
41815;SDS011;27814;53.452;-6.180;2022-09-27T01:39:24;15.88;;;2.47;;
41815;SDS011;27814;53.452;-6.180;2022-09-27T01:42:03;17.15;;;2.85;;
41815;SDS011;27814;53.452;-6.180;2022-09-27T01:44:39;19.60;;;2.92;;
41815;SDS011;27814;53.452;-6.180;2022-09-27T01:47:15;18.60;;;2.90;;
41815;SDS011;27814;53.452;-6.180;2022-09-27T01:49:48;18.98;;;3.20;;
41815;SDS011;27814;53.452;-6.180;2022-09-27T01:52:21;16.73;;;2.85;;
41815;SDS011;27814;53.452;-6.180;2022-09-27T01:54:57;14.80;;;3.10;;
41815;SDS011;27814;53.452;-6.180;2022-09-27T01:57:29;17.65;;;2.55;;
41815;SDS011;27814;53.452;-6.180;2022-09-27T02:00:03;17.95;;;3.55;;
41815;SDS011;27814;53.452;-6.180;2022-09-27T02:02:37;15.38;;;3.15;;
41815;SDS011;27814;53.452;-6.180;2022-09-27T02:05:09;14.75;;;3.35;;
41815;SDS011;27814;53.452;-6.180;2022-09-27T02:07:44;18.67;;;2.97;;
41815;SDS011;27814;53.452;-6.180;2022-09-27T02:10:18;13.43;;;2.85;;
41815;SDS011;27814;53.452;-6.180;2022-09-27T02:12:51;13.65;;;2.50;;
41815;SDS011;27814;53.452;-6.180;2022-09-27T02:15:27;15.60;;;2.65;;
41815;SDS011;27814;53.452;-6.180;2022-09-27T02:18:06;12.45;;;2.25;;
41815;SDS011;27814;53.452;-6.180;2022-09-27T02:20:45;15.63;;;3.05;;
41815;SDS011;27814;53.452;-6.180;2022-09-27T02:23:20;16.97;;;3.23;;
41815;SDS011;27814;53.452;-6.180;2022-09-27T02:25:53;19.77;;;3.00;;
41815;SDS011;27814;53.452;-6.180;2022-09-27T02:28:26;15.15;;;2.95;;
41815;SDS011;27814;53.452;-6.180;2022-09-27T02:30:59;17.92;;;3.65;;
41815;SDS011;27814;53.452;-6.180;2022-09-27T02:33:30;14.73;;;2.63;;
41815;SDS011;27814;53.452;-6.180;2022-09-27T02:36:04;15.57;;;2.53;;
41815;SDS011;27814;53.452;-6.180;2022-09-27T02:38:33;15.85;;;2.90;;
41815;SDS011;27814;53.452;-6.180;2022-09-27T02:41:02;20.33;;;3.85;;
41815;SDS011;27814;53.452;-6.180;2022-09-27T02:43:30;14.80;;;2.70;;
41815;SDS011;27814;53.452;-6.180;2022-09-27T02:46:04;20.70;;;3.13;;
41815;SDS011;27814;53.452;-6.180;2022-09-27T02:48:46;16.75;;;2.95;;
41815;SDS011;27814;53.452;-6.180;2022-09-27T02:51:28;14.88;;;3.30;;
41815;SDS011;27814;53.452;-6.180;2022-09-27T02:54:11;14.87;;;2.50;;
41815;SDS011;27814;53.452;-6.180;2022-09-27T02:56:47;14.52;;;3.05;;
41815;SDS011;27814;53.452;-6.180;2022-09-27T02:59:24;14.32;;;2.80;;
41815;SDS011;27814;53.452;-6.180;2022-09-27T03:02:00;17.93;;;2.80;;
41815;SDS011;27814;53.452;-6.180;2022-09-27T03:04:41;19.45;;;2.92;;
41815;SDS011;27814;53.452;-6.180;2022-09-27T03:07:14;17.77;;;2.83;;
41815;SDS011;27814;53.452;-6.180;2022-09-27T03:09:44;17.17;;;3.23;;
41815;SDS011;27814;53.452;-6.180;2022-09-27T03:12:13;16.50;;;3.20;;
41815;SDS011;27814;53.452;-6.180;2022-09-27T03:14:46;19.97;;;3.53;;
41815;SDS011;27814;53.452;-6.180;2022-09-27T03:17:14;16.20;;;2.30;;
41815;SDS011;27814;53.452;-6.180;2022-09-27T03:19:44;17.15;;;2.88;;
41815;SDS011;27814;53.452;-6.180;2022-09-27T03:22:12;18.85;;;3.00;;
41815;SDS011;27814;53.452;-6.180;2022-09-27T03:24:41;20.13;;;3.25;;
41815;SDS011;27814;53.452;-6.180;2022-09-27T03:27:10;22.98;;;3.17;;
41815;SDS011;27814;53.452;-6.180;2022-09-27T03:29:39;24.10;;;4.00;;
41815;SDS011;27814;53.452;-6.180;2022-09-27T03:32:07;17.45;;;3.58;;
41815;SDS011;27814;53.452;-6.180;2022-09-27T03:34:35;14.45;;;2.65;;
41815;SDS011;27814;53.452;-6.180;2022-09-27T03:37:05;13.63;;;2.90;;
41815;SDS011;27814;53.452;-6.180;2022-09-27T03:39:33;16.55;;;2.47;;
41815;SDS011;27814;53.452;-6.180;2022-09-27T03:42:02;19.17;;;3.15;;
41815;SDS011;27814;53.452;-6.180;2022-09-27T03:44:30;17.17;;;3.08;;
41815;SDS011;27814;53.452;-6.180;2022-09-27T03:46:59;18.77;;;3.00;;
41815;SDS011;27814;53.452;-6.180;2022-09-27T03:49:27;12.98;;;2.53;;
41815;SDS011;27814;53.452;-6.180;2022-09-27T03:51:55;15.85;;;2.90;;
41815;SDS011;27814;53.452;-6.180;2022-09-27T03:54:25;13.98;;;2.30;;
41815;SDS011;27814;53.452;-6.180;2022-09-27T03:56:54;17.08;;;2.53;;
41815;SDS011;27814;53.452;-6.180;2022-09-27T03:59:22;17.13;;;3.25;;
41815;SDS011;27814;53.452;-6.180;2022-09-27T04:01:51;14.70;;;2.78;;
41815;SDS011;27814;53.452;-6.180;2022-09-27T04:04:19;15.50;;;2.97;;
41815;SDS011;27814;53.452;-6.180;2022-09-27T04:06:47;13.57;;;3.10;;
41815;SDS011;27814;53.452;-6.180;2022-09-27T04:09:16;13.85;;;2.80;;
41815;SDS011;27814;53.452;-6.180;2022-09-27T04:11:45;15.57;;;2.85;;
41815;SDS011;27814;53.452;-6.180;2022-09-27T04:14:14;11.50;;;2.40;;
41815;SDS011;27814;53.452;-6.180;2022-09-27T04:16:42;14.75;;;2.90;;
41815;SDS011;27814;53.452;-6.180;2022-09-27T04:19:11;16.92;;;3.50;;
41815;SDS011;27814;53.452;-6.180;2022-09-27T04:21:39;15.52;;;3.22;;
41815;SDS011;27814;53.452;-6.180;2022-09-27T04:24:07;15.18;;;2.85;;
41815;SDS011;27814;53.452;-6.180;2022-09-27T04:26:37;15.13;;;2.60;;
41815;SDS011;27814;53.452;-6.180;2022-09-27T04:29:07;15.15;;;2.90;;
41815;SDS011;27814;53.452;-6.180;2022-09-27T04:31:36;15.18;;;2.75;;
41815;SDS011;27814;53.452;-6.180;2022-09-27T04:34:04;18.17;;;2.92;;
41815;SDS011;27814;53.452;-6.180;2022-09-27T04:36:33;15.93;;;2.80;;
41815;SDS011;27814;53.452;-6.180;2022-09-27T04:39:03;15.95;;;2.85;;
41815;SDS011;27814;53.452;-6.180;2022-09-27T04:41:32;13.13;;;2.55;;
41815;SDS011;27814;53.452;-6.180;2022-09-27T04:44:01;14.73;;;2.67;;
41815;SDS011;27814;53.452;-6.180;2022-09-27T04:49:02;18.77;;;2.88;;
41815;SDS011;27814;53.452;-6.180;2022-09-27T04:51:31;21.13;;;3.33;;
41815;SDS011;27814;53.452;-6.180;2022-09-27T04:53:59;20.67;;;2.70;;
41815;SDS011;27814;53.452;-6.180;2022-09-27T04:56:28;16.83;;;2.78;;
41815;SDS011;27814;53.452;-6.180;2022-09-27T04:58:56;16.90;;;2.72;;
41815;SDS011;27814;53.452;-6.180;2022-09-27T05:01:25;19.20;;;3.03;;
41815;SDS011;27814;53.452;-6.180;2022-09-27T05:03:55;19.08;;;2.70;;
41815;SDS011;27814;53.452;-6.180;2022-09-27T05:06:24;13.65;;;2.25;;
41815;SDS011;27814;53.452;-6.180;2022-09-27T05:08:52;18.88;;;3.53;;
41815;SDS011;27814;53.452;-6.180;2022-09-27T05:11:21;16.23;;;2.83;;
41815;SDS011;27814;53.452;-6.180;2022-09-27T05:13:49;16.38;;;2.95;;
41815;SDS011;27814;53.452;-6.180;2022-09-27T05:16:17;17.13;;;2.88;;
41815;SDS011;27814;53.452;-6.180;2022-09-27T05:18:46;16.13;;;2.63;;
41815;SDS011;27814;53.452;-6.180;2022-09-27T05:21:16;14.48;;;2.88;;
41815;SDS011;27814;53.452;-6.180;2022-09-27T05:23:44;10.95;;;2.50;;
41815;SDS011;27814;53.452;-6.180;2022-09-27T05:26:13;12.45;;;2.58;;
41815;SDS011;27814;53.452;-6.180;2022-09-27T05:28:41;19.77;;;3.85;;
41815;SDS011;27814;53.452;-6.180;2022-09-27T05:31:12;18.73;;;5.25;;
41815;SDS011;27814;53.452;-6.180;2022-09-27T05:33:41;14.25;;;2.70;;
41815;SDS011;27814;53.452;-6.180;2022-09-27T05:36:10;17.98;;;3.00;;
41815;SDS011;27814;53.452;-6.180;2022-09-27T05:38:39;17.50;;;2.72;;
41815;SDS011;27814;53.452;-6.180;2022-09-27T05:41:08;15.82;;;3.03;;
41815;SDS011;27814;53.452;-6.180;2022-09-27T05:43:37;15.23;;;2.38;;
41815;SDS011;27814;53.452;-6.180;2022-09-27T05:46:05;16.85;;;3.33;;
41815;SDS011;27814;53.452;-6.180;2022-09-27T05:48:34;16.40;;;3.13;;
41815;SDS011;27814;53.452;-6.180;2022-09-27T05:51:03;16.58;;;3.38;;
41815;SDS011;27814;53.452;-6.180;2022-09-27T05:53:32;17.75;;;2.88;;
41815;SDS011;27814;53.452;-6.180;2022-09-27T05:56:02;14.93;;;2.45;;
41815;SDS011;27814;53.452;-6.180;2022-09-27T05:58:31;12.88;;;2.13;;
41815;SDS011;27814;53.452;-6.180;2022-09-27T06:00:59;16.38;;;2.63;;
41815;SDS011;27814;53.452;-6.180;2022-09-27T06:03:28;19.27;;;3.45;;
41815;SDS011;27814;53.452;-6.180;2022-09-27T06:05:56;15.23;;;2.73;;
41815;SDS011;27814;53.452;-6.180;2022-09-27T06:08:31;15.77;;;2.40;;
41815;SDS011;27814;53.452;-6.180;2022-09-27T06:11:01;15.98;;;2.58;;
41815;SDS011;27814;53.452;-6.180;2022-09-27T06:13:32;13.17;;;2.50;;
41815;SDS011;27814;53.452;-6.180;2022-09-27T06:16:01;14.30;;;2.80;;
41815;SDS011;27814;53.452;-6.180;2022-09-27T06:18:30;13.15;;;2.72;;
41815;SDS011;27814;53.452;-6.180;2022-09-27T06:20:59;14.10;;;2.67;;
41815;SDS011;27814;53.452;-6.180;2022-09-27T06:23:28;18.98;;;2.90;;
41815;SDS011;27814;53.452;-6.180;2022-09-27T06:25:59;19.05;;;2.50;;
41815;SDS011;27814;53.452;-6.180;2022-09-27T06:28:31;15.60;;;2.77;;
41815;SDS011;27814;53.452;-6.180;2022-09-27T06:31:03;17.85;;;2.65;;
41815;SDS011;27814;53.452;-6.180;2022-09-27T06:33:33;12.07;;;2.25;;
41815;SDS011;27814;53.452;-6.180;2022-09-27T06:36:03;15.60;;;3.20;;
41815;SDS011;27814;53.452;-6.180;2022-09-27T06:38:32;16.88;;;2.83;;
41815;SDS011;27814;53.452;-6.180;2022-09-27T06:41:01;13.75;;;2.60;;
41815;SDS011;27814;53.452;-6.180;2022-09-27T06:43:33;14.00;;;3.00;;
41815;SDS011;27814;53.452;-6.180;2022-09-27T06:46:02;17.63;;;2.65;;
41815;SDS011;27814;53.452;-6.180;2022-09-27T06:48:31;15.27;;;2.90;;
41815;SDS011;27814;53.452;-6.180;2022-09-27T06:51:02;13.82;;;2.88;;
41815;SDS011;27814;53.452;-6.180;2022-09-27T06:53:32;14.80;;;2.70;;
41815;SDS011;27814;53.452;-6.180;2022-09-27T06:56:00;16.25;;;2.25;;
41815;SDS011;27814;53.452;-6.180;2022-09-27T06:58:29;22.73;;;4.13;;
41815;SDS011;27814;53.452;-6.180;2022-09-27T07:01:16;14.65;;;2.72;;
41815;SDS011;27814;53.452;-6.180;2022-09-27T07:03:48;18.25;;;2.85;;
41815;SDS011;27814;53.452;-6.180;2022-09-27T07:06:17;20.30;;;3.40;;
41815;SDS011;27814;53.452;-6.180;2022-09-27T07:08:49;17.00;;;3.10;;
41815;SDS011;27814;53.452;-6.180;2022-09-27T07:11:18;16.58;;;2.58;;
41815;SDS011;27814;53.452;-6.180;2022-09-27T07:13:49;14.15;;;2.40;;
41815;SDS011;27814;53.452;-6.180;2022-09-27T07:16:18;18.05;;;2.95;;
41815;SDS011;27814;53.452;-6.180;2022-09-27T07:18:47;16.50;;;2.60;;
41815;SDS011;27814;53.452;-6.180;2022-09-27T07:21:16;13.93;;;2.70;;
41815;SDS011;27814;53.452;-6.180;2022-09-27T07:23:44;20.23;;;3.00;;
41815;SDS011;27814;53.452;-6.180;2022-09-27T07:26:14;18.53;;;2.97;;
41815;SDS011;27814;53.452;-6.180;2022-09-27T07:28:42;13.63;;;2.50;;
41815;SDS011;27814;53.452;-6.180;2022-09-27T07:31:11;19.73;;;3.20;;
41815;SDS011;27814;53.452;-6.180;2022-09-27T07:33:41;17.60;;;3.30;;
41815;SDS011;27814;53.452;-6.180;2022-09-27T07:36:10;18.85;;;3.30;;
41815;SDS011;27814;53.452;-6.180;2022-09-27T07:38:39;12.80;;;2.70;;
41815;SDS011;27814;53.452;-6.180;2022-09-27T07:41:08;14.63;;;3.20;;
41815;SDS011;27814;53.452;-6.180;2022-09-27T07:43:39;23.42;;;3.75;;
41815;SDS011;27814;53.452;-6.180;2022-09-27T07:46:10;17.25;;;2.92;;
41815;SDS011;27814;53.452;-6.180;2022-09-27T07:48:39;14.27;;;2.87;;
41815;SDS011;27814;53.452;-6.180;2022-09-27T07:51:09;18.52;;;3.38;;
41815;SDS011;27814;53.452;-6.180;2022-09-27T07:53:37;17.58;;;2.65;;
41815;SDS011;27814;53.452;-6.180;2022-09-27T07:56:06;16.23;;;2.53;;
41815;SDS011;27814;53.452;-6.180;2022-09-27T07:58:35;16.77;;;3.33;;
41815;SDS011;27814;53.452;-6.180;2022-09-27T08:01:03;21.83;;;2.95;;
41815;SDS011;27814;53.452;-6.180;2022-09-27T08:03:32;12.60;;;2.78;;
41815;SDS011;27814;53.452;-6.180;2022-09-27T08:06:00;15.87;;;2.57;;
41815;SDS011;27814;53.452;-6.180;2022-09-27T08:08:31;14.02;;;2.05;;
41815;SDS011;27814;53.452;-6.180;2022-09-27T08:10:59;14.23;;;2.60;;
41815;SDS011;27814;53.452;-6.180;2022-09-27T08:13:29;16.08;;;2.78;;
41815;SDS011;27814;53.452;-6.180;2022-09-27T08:16:00;18.50;;;2.80;;
41815;SDS011;27814;53.452;-6.180;2022-09-27T08:18:29;16.27;;;2.63;;
41815;SDS011;27814;53.452;-6.180;2022-09-27T08:21:04;15.77;;;3.20;;
41815;SDS011;27814;53.452;-6.180;2022-09-27T08:23:34;18.33;;;3.03;;
41815;SDS011;27814;53.452;-6.180;2022-09-27T08:26:02;13.27;;;2.72;;
41815;SDS011;27814;53.452;-6.180;2022-09-27T08:28:30;17.73;;;2.97;;
41815;SDS011;27814;53.452;-6.180;2022-09-27T08:30:59;14.02;;;2.83;;
41815;SDS011;27814;53.452;-6.180;2022-09-27T08:33:27;14.45;;;2.83;;
41815;SDS011;27814;53.452;-6.180;2022-09-27T08:36:00;14.88;;;2.65;;
41815;SDS011;27814;53.452;-6.180;2022-09-27T08:38:28;13.82;;;2.80;;
41815;SDS011;27814;53.452;-6.180;2022-09-27T08:41:00;13.93;;;2.88;;
41815;SDS011;27814;53.452;-6.180;2022-09-27T08:43:35;13.32;;;3.08;;
41815;SDS011;27814;53.452;-6.180;2022-09-27T08:46:18;19.15;;;2.50;;
41815;SDS011;27814;53.452;-6.180;2022-09-27T08:48:56;17.02;;;3.03;;
41815;SDS011;27814;53.452;-6.180;2022-09-27T08:51:32;14.35;;;2.50;;
41815;SDS011;27814;53.452;-6.180;2022-09-27T08:54:02;16.88;;;2.55;;
41815;SDS011;27814;53.452;-6.180;2022-09-27T08:56:36;19.00;;;2.60;;
41815;SDS011;27814;53.452;-6.180;2022-09-27T08:59:06;16.75;;;3.00;;
41815;SDS011;27814;53.452;-6.180;2022-09-27T09:01:40;14.00;;;2.92;;
41815;SDS011;27814;53.452;-6.180;2022-09-27T09:04:09;13.40;;;2.55;;
41815;SDS011;27814;53.452;-6.180;2022-09-27T09:06:38;14.13;;;2.58;;
41815;SDS011;27814;53.452;-6.180;2022-09-27T09:09:17;17.35;;;3.05;;
41815;SDS011;27814;53.452;-6.180;2022-09-27T09:11:59;16.42;;;2.50;;
41815;SDS011;27814;53.452;-6.180;2022-09-27T09:14:57;13.18;;;2.67;;
41815;SDS011;27814;53.452;-6.180;2022-09-27T09:17:36;12.25;;;2.50;;
41815;SDS011;27814;53.452;-6.180;2022-09-27T09:20:30;15.23;;;2.70;;
41815;SDS011;27814;53.452;-6.180;2022-09-27T09:23:19;11.50;;;2.42;;
41815;SDS011;27814;53.452;-6.180;2022-09-27T09:26:04;13.55;;;2.83;;
41815;SDS011;27814;53.452;-6.180;2022-09-27T09:28:43;17.15;;;3.25;;
41815;SDS011;27814;53.452;-6.180;2022-09-27T09:31:27;16.13;;;2.83;;
41815;SDS011;27814;53.452;-6.180;2022-09-27T09:34:05;13.50;;;2.57;;
41815;SDS011;27814;53.452;-6.180;2022-09-27T09:36:43;15.03;;;2.80;;
41815;SDS011;27814;53.452;-6.180;2022-09-27T09:39:15;12.90;;;2.92;;
41815;SDS011;27814;53.452;-6.180;2022-09-27T09:41:51;16.17;;;2.60;;
41815;SDS011;27814;53.452;-6.180;2022-09-27T09:44:40;16.88;;;2.70;;
41815;SDS011;27814;53.452;-6.180;2022-09-27T09:47:13;20.00;;;2.75;;
41815;SDS011;27814;53.452;-6.180;2022-09-27T09:49:50;14.90;;;3.00;;
41815;SDS011;27814;53.452;-6.180;2022-09-27T09:52:23;17.02;;;3.28;;
41815;SDS011;27814;53.452;-6.180;2022-09-27T09:55:06;14.35;;;2.65;;
41815;SDS011;27814;53.452;-6.180;2022-09-27T09:57:47;12.55;;;2.30;;
41815;SDS011;27814;53.452;-6.180;2022-09-27T10:00:24;15.07;;;2.55;;
41815;SDS011;27814;53.452;-6.180;2022-09-27T10:02:53;15.90;;;3.03;;
41815;SDS011;27814;53.452;-6.180;2022-09-27T10:05:22;18.42;;;2.53;;
41815;SDS011;27814;53.452;-6.180;2022-09-27T10:07:52;15.23;;;2.87;;
41815;SDS011;27814;53.452;-6.180;2022-09-27T10:10:25;15.00;;;2.67;;
41815;SDS011;27814;53.452;-6.180;2022-09-27T10:12:54;12.40;;;2.50;;
41815;SDS011;27814;53.452;-6.180;2022-09-27T10:15:26;17.00;;;2.63;;
41815;SDS011;27814;53.452;-6.180;2022-09-27T10:17:57;9.65;;;2.13;;
41815;SDS011;27814;53.452;-6.180;2022-09-27T10:20:29;11.23;;;2.22;;
41815;SDS011;27814;53.452;-6.180;2022-09-27T10:23:00;12.20;;;2.15;;
41815;SDS011;27814;53.452;-6.180;2022-09-27T10:25:46;12.48;;;2.20;;
41815;SDS011;27814;53.452;-6.180;2022-09-27T10:31:10;13.27;;;2.20;;
41815;SDS011;27814;53.452;-6.180;2022-09-27T10:33:50;12.05;;;2.33;;
41815;SDS011;27814;53.452;-6.180;2022-09-27T10:36:21;14.43;;;2.45;;
41815;SDS011;27814;53.452;-6.180;2022-09-27T10:38:52;10.40;;;2.00;;
41815;SDS011;27814;53.452;-6.180;2022-09-27T10:41:23;10.90;;;1.95;;
41815;SDS011;27814;53.452;-6.180;2022-09-27T10:43:53;11.48;;;2.30;;
41815;SDS011;27814;53.452;-6.180;2022-09-27T10:46:28;9.27;;;2.00;;
41815;SDS011;27814;53.452;-6.180;2022-09-27T10:49:08;15.48;;;2.00;;
41815;SDS011;27814;53.452;-6.180;2022-09-27T10:51:44;15.40;;;2.78;;
41815;SDS011;27814;53.452;-6.180;2022-09-27T10:54:17;12.07;;;2.20;;
41815;SDS011;27814;53.452;-6.180;2022-09-27T10:56:53;12.18;;;2.13;;
41815;SDS011;27814;53.452;-6.180;2022-09-27T10:59:23;9.40;;;1.90;;
41815;SDS011;27814;53.452;-6.180;2022-09-27T11:01:54;8.70;;;2.30;;
41815;SDS011;27814;53.452;-6.180;2022-09-27T11:04:27;10.30;;;1.77;;
41815;SDS011;27814;53.452;-6.180;2022-09-27T11:07:08;7.07;;;1.45;;
41815;SDS011;27814;53.452;-6.180;2022-09-27T11:09:45;8.13;;;1.90;;
41815;SDS011;27814;53.452;-6.180;2022-09-27T11:12:15;10.15;;;1.75;;
41815;SDS011;27814;53.452;-6.180;2022-09-27T11:14:50;9.13;;;1.60;;
41815;SDS011;27814;53.452;-6.180;2022-09-27T11:17:28;9.97;;;1.80;;
41815;SDS011;27814;53.452;-6.180;2022-09-27T11:20:04;13.40;;;2.17;;
41815;SDS011;27814;53.452;-6.180;2022-09-27T11:25:37;14.23;;;2.40;;
41815;SDS011;27814;53.452;-6.180;2022-09-27T11:28:14;11.73;;;2.08;;
41815;SDS011;27814;53.452;-6.180;2022-09-27T11:30:56;9.63;;;1.80;;
41815;SDS011;27814;53.452;-6.180;2022-09-27T11:36:33;13.35;;;2.22;;
41815;SDS011;27814;53.452;-6.180;2022-09-27T11:39:10;12.43;;;2.22;;
41815;SDS011;27814;53.452;-6.180;2022-09-27T11:41:48;11.68;;;2.70;;
41815;SDS011;27814;53.452;-6.180;2022-09-27T11:44:32;11.60;;;2.97;;
41815;SDS011;27814;53.452;-6.180;2022-09-27T11:47:41;15.80;;;2.83;;
41815;SDS011;27814;53.452;-6.180;2022-09-27T11:50:22;13.52;;;2.75;;
41815;SDS011;27814;53.452;-6.180;2022-09-27T11:53:07;15.70;;;2.63;;
41815;SDS011;27814;53.452;-6.180;2022-09-27T11:55:48;11.02;;;2.00;;
41815;SDS011;27814;53.452;-6.180;2022-09-27T11:58:25;11.77;;;2.23;;
41815;SDS011;27814;53.452;-6.180;2022-09-27T12:01:03;12.05;;;2.08;;
41815;SDS011;27814;53.452;-6.180;2022-09-27T12:03:40;12.40;;;2.08;;
41815;SDS011;27814;53.452;-6.180;2022-09-27T12:06:34;12.50;;;2.30;;
41815;SDS011;27814;53.452;-6.180;2022-09-27T12:09:11;13.82;;;2.22;;
41815;SDS011;27814;53.452;-6.180;2022-09-27T12:11:45;9.43;;;2.65;;
41815;SDS011;27814;53.452;-6.180;2022-09-27T12:14:18;12.68;;;2.40;;
41815;SDS011;27814;53.452;-6.180;2022-09-27T12:16:52;9.30;;;2.20;;
41815;SDS011;27814;53.452;-6.180;2022-09-27T12:19:24;12.45;;;2.30;;
41815;SDS011;27814;53.452;-6.180;2022-09-27T12:21:59;13.50;;;2.50;;
41815;SDS011;27814;53.452;-6.180;2022-09-27T12:24:31;12.82;;;2.50;;
41815;SDS011;27814;53.452;-6.180;2022-09-27T12:27:01;10.38;;;2.25;;
41815;SDS011;27814;53.452;-6.180;2022-09-27T12:29:35;12.13;;;2.47;;
41815;SDS011;27814;53.452;-6.180;2022-09-27T12:32:08;15.00;;;2.73;;
41815;SDS011;27814;53.452;-6.180;2022-09-27T12:34:43;12.27;;;2.20;;
41815;SDS011;27814;53.452;-6.180;2022-09-27T12:37:20;9.33;;;1.87;;
41815;SDS011;27814;53.452;-6.180;2022-09-27T12:39:53;12.88;;;2.45;;
41815;SDS011;27814;53.452;-6.180;2022-09-27T12:42:28;10.65;;;1.90;;
41815;SDS011;27814;53.452;-6.180;2022-09-27T12:45:03;11.35;;;2.20;;
41815;SDS011;27814;53.452;-6.180;2022-09-27T12:47:39;9.52;;;1.85;;
41815;SDS011;27814;53.452;-6.180;2022-09-27T12:50:20;10.20;;;2.00;;
41815;SDS011;27814;53.452;-6.180;2022-09-27T12:53:00;15.25;;;2.45;;
41815;SDS011;27814;53.452;-6.180;2022-09-27T12:55:41;14.18;;;2.33;;
41815;SDS011;27814;53.452;-6.180;2022-09-27T12:58:33;11.30;;;1.92;;
41815;SDS011;27814;53.452;-6.180;2022-09-27T13:01:23;11.65;;;1.98;;
41815;SDS011;27814;53.452;-6.180;2022-09-27T13:04:06;11.15;;;1.52;;
41815;SDS011;27814;53.452;-6.180;2022-09-27T13:06:50;10.55;;;2.10;;
41815;SDS011;27814;53.452;-6.180;2022-09-27T13:12:39;10.82;;;2.15;;
41815;SDS011;27814;53.452;-6.180;2022-09-27T13:15:15;10.10;;;2.13;;
41815;SDS011;27814;53.452;-6.180;2022-09-27T13:17:52;9.68;;;2.25;;
41815;SDS011;27814;53.452;-6.180;2022-09-27T13:26:43;10.23;;;1.85;;
41815;SDS011;27814;53.452;-6.180;2022-09-27T13:29:23;11.68;;;1.80;;
41815;SDS011;27814;53.452;-6.180;2022-09-27T13:32:01;9.60;;;1.73;;
41815;SDS011;27814;53.452;-6.180;2022-09-27T13:34:41;8.43;;;1.73;;
41815;SDS011;27814;53.452;-6.180;2022-09-27T13:43:12;8.23;;;1.53;;
41815;SDS011;27814;53.452;-6.180;2022-09-27T13:46:03;9.18;;;2.40;;
41815;SDS011;27814;53.452;-6.180;2022-09-27T13:48:38;7.85;;;1.63;;
41815;SDS011;27814;53.452;-6.180;2022-09-27T13:51:17;7.57;;;1.52;;
41815;SDS011;27814;53.452;-6.180;2022-09-27T13:54:01;7.95;;;1.30;;
41815;SDS011;27814;53.452;-6.180;2022-09-27T13:56:49;8.40;;;1.77;;
41815;SDS011;27814;53.452;-6.180;2022-09-27T13:59:22;9.75;;;1.85;;
41815;SDS011;27814;53.452;-6.180;2022-09-27T14:01:58;10.13;;;1.67;;
41815;SDS011;27814;53.452;-6.180;2022-09-27T14:04:33;10.48;;;1.80;;
41815;SDS011;27814;53.452;-6.180;2022-09-27T14:07:09;7.25;;;1.83;;
41815;SDS011;27814;53.452;-6.180;2022-09-27T14:09:44;11.43;;;1.73;;
41815;SDS011;27814;53.452;-6.180;2022-09-27T14:12:15;8.55;;;1.55;;
41815;SDS011;27814;53.452;-6.180;2022-09-27T14:14:47;10.07;;;2.15;;
41815;SDS011;27814;53.452;-6.180;2022-09-27T14:17:17;7.63;;;1.88;;
41815;SDS011;27814;53.452;-6.180;2022-09-27T14:19:45;8.95;;;1.63;;
41815;SDS011;27814;53.452;-6.180;2022-09-27T14:22:15;8.10;;;1.45;;
41815;SDS011;27814;53.452;-6.180;2022-09-27T14:24:46;10.45;;;1.35;;
41815;SDS011;27814;53.452;-6.180;2022-09-27T14:27:17;9.65;;;1.83;;
41815;SDS011;27814;53.452;-6.180;2022-09-27T14:29:48;8.98;;;1.48;;
41815;SDS011;27814;53.452;-6.180;2022-09-27T14:32:19;10.77;;;2.03;;
41815;SDS011;27814;53.452;-6.180;2022-09-27T14:35:01;11.30;;;1.88;;
41815;SDS011;27814;53.452;-6.180;2022-09-27T14:37:56;6.85;;;1.67;;
41815;SDS011;27814;53.452;-6.180;2022-09-27T14:40:53;9.90;;;1.95;;
41815;SDS011;27814;53.452;-6.180;2022-09-27T14:43:25;10.77;;;1.77;;
41815;SDS011;27814;53.452;-6.180;2022-09-27T14:45:57;9.60;;;2.00;;
41815;SDS011;27814;53.452;-6.180;2022-09-27T14:48:28;9.50;;;1.52;;
41815;SDS011;27814;53.452;-6.180;2022-09-27T14:50:59;7.15;;;1.67;;
41815;SDS011;27814;53.452;-6.180;2022-09-27T14:53:32;7.85;;;1.50;;
41815;SDS011;27814;53.452;-6.180;2022-09-27T14:56:02;8.18;;;1.73;;
41815;SDS011;27814;53.452;-6.180;2022-09-27T14:58:33;9.05;;;1.90;;
41815;SDS011;27814;53.452;-6.180;2022-09-27T15:01:15;9.38;;;1.38;;
41815;SDS011;27814;53.452;-6.180;2022-09-27T15:03:45;9.20;;;1.87;;
41815;SDS011;27814;53.452;-6.180;2022-09-27T15:06:15;9.45;;;1.48;;
41815;SDS011;27814;53.452;-6.180;2022-09-27T15:08:45;11.13;;;2.28;;
41815;SDS011;27814;53.452;-6.180;2022-09-27T15:11:15;8.40;;;1.50;;
41815;SDS011;27814;53.452;-6.180;2022-09-27T15:13:45;8.55;;;1.30;;
41815;SDS011;27814;53.452;-6.180;2022-09-27T15:16:19;9.57;;;1.80;;
41815;SDS011;27814;53.452;-6.180;2022-09-27T15:18:58;9.00;;;1.50;;
41815;SDS011;27814;53.452;-6.180;2022-09-27T15:21:29;8.27;;;1.58;;
41815;SDS011;27814;53.452;-6.180;2022-09-27T15:23:59;12.07;;;1.53;;
41815;SDS011;27814;53.452;-6.180;2022-09-27T15:26:33;8.27;;;1.80;;
41815;SDS011;27814;53.452;-6.180;2022-09-27T15:29:04;8.25;;;1.73;;